createdAt,value
2017-11-23T00:00:05.080Z,91.89
2017-11-23T00:01:07.248Z,92.36
2017-11-23T00:02:09.131Z,92.18
2017-11-23T00:03:11.007Z,92.18
2017-11-23T00:04:12.885Z,91.32
2017-11-23T00:05:27.031Z,91.89
2017-11-23T00:06:28.913Z,91.99
2017-11-23T00:07:30.792Z,91.51
2017-11-23T00:08:32.667Z,90.75
2017-11-23T00:09:34.493Z,90.66
2017-11-23T00:10:36.304Z,90.84
2017-11-23T00:11:38.180Z,90.84
2017-11-23T00:12:40.056Z,90.75
2017-11-23T00:13:41.933Z,91.61
2017-11-23T00:14:56.078Z,90.75
2017-11-23T00:15:57.957Z,90.94
2017-11-23T00:16:59.836Z,90.37
2017-11-23T00:18:01.713Z,90.47
2017-11-23T00:19:03.529Z,92.36
2017-11-23T00:20:05.339Z,92.36
2017-11-23T00:21:07.213Z,92.08
2017-11-23T00:22:09.091Z,92.27
2017-11-23T00:23:10.969Z,92.36
2017-11-23T00:24:25.114Z,91.32
2017-11-23T00:25:26.993Z,91.22
2017-11-23T00:26:28.880Z,91.61
2017-11-23T00:27:30.749Z,90.94
2017-11-23T00:28:32.565Z,89.99
2017-11-23T00:29:34.377Z,90.94
2017-11-23T00:30:36.252Z,91.13
2017-11-23T00:31:38.134Z,90.18
2017-11-23T00:32:40.006Z,90.08
2017-11-23T00:33:54.160Z,90.37
2017-11-23T00:34:56.030Z,89.42
2017-11-23T00:35:57.913Z,88.94
2017-11-23T00:36:59.793Z,89.89
2017-11-23T00:38:01.612Z,91.03
2017-11-23T00:39:03.418Z,91.51
2017-11-23T00:40:05.294Z,91.80
2017-11-23T00:41:07.174Z,91.42
2017-11-23T00:42:09.070Z,91.42
2017-11-23T00:43:23.198Z,91.70
2017-11-23T00:44:25.080Z,91.22
2017-11-23T00:45:26.956Z,91.03
2017-11-23T00:46:28.832Z,90.75
2017-11-23T00:47:30.647Z,91.03
2017-11-23T00:48:32.459Z,92.56
2017-11-23T00:49:34.333Z,91.80
2017-11-23T00:50:36.209Z,91.51
2017-11-23T00:51:38.088Z,91.42
2017-11-23T00:52:52.235Z,90.56
2017-11-23T00:53:54.115Z,90.66
2017-11-23T00:54:55.992Z,90.66
2017-11-23T00:55:57.879Z,91.03
2017-11-23T00:56:59.686Z,91.22
2017-11-23T00:58:01.497Z,90.94
2017-11-23T00:59:03.373Z,91.03
2017-11-23T01:00:05.251Z,91.61
2017-11-23T01:01:07.135Z,90.84
2017-11-23T01:02:21.276Z,90.94
2017-11-23T01:03:23.155Z,92.36
2017-11-23T01:04:25.033Z,92.46
2017-11-23T01:05:26.910Z,92.46
2017-11-23T01:06:28.724Z,92.18
2017-11-23T01:07:30.540Z,91.80
2017-11-23T01:08:32.406Z,91.70
2017-11-23T01:09:34.281Z,91.42
2017-11-23T01:10:36.158Z,91.32
2017-11-23T01:11:50.305Z,90.94
2017-11-23T01:12:52.183Z,91.03
2017-11-23T01:13:54.060Z,91.61
2017-11-23T01:14:55.937Z,91.99
2017-11-23T01:15:57.751Z,91.89
2017-11-23T01:16:59.561Z,92.18
2017-11-23T01:18:01.436Z,90.94
2017-11-23T01:19:03.313Z,91.61
2017-11-23T01:20:05.189Z,92.46
2017-11-23T01:21:19.336Z,92.18
2017-11-23T01:22:21.214Z,92.18
2017-11-23T01:23:23.093Z,93.04
2017-11-23T01:24:24.970Z,92.65
2017-11-23T01:25:26.785Z,93.13
2017-11-23T01:26:28.595Z,92.36
2017-11-23T01:27:30.468Z,92.18
2017-11-23T01:28:32.347Z,92.18
2017-11-23T01:29:34.225Z,92.94
2017-11-23T01:30:48.357Z,92.18
2017-11-23T01:31:50.262Z,91.99
2017-11-23T01:32:52.141Z,91.51
2017-11-23T01:33:54.019Z,90.75
2017-11-23T01:34:55.842Z,91.70
2017-11-23T01:35:57.647Z,92.18
2017-11-23T01:36:59.524Z,91.89
2017-11-23T01:38:01.400Z,91.42
2017-11-23T01:39:03.279Z,91.80
2017-11-23T01:40:17.427Z,91.70
2017-11-23T01:41:19.302Z,91.03
2017-11-23T01:42:21.191Z,90.28
2017-11-23T01:43:23.061Z,90.47
2017-11-23T01:44:24.890Z,89.89
2017-11-23T01:45:26.686Z,89.99
2017-11-23T01:46:28.561Z,90.08
2017-11-23T01:47:30.438Z,89.89
2017-11-23T01:48:32.318Z,90.04
2017-11-23T01:49:46.462Z,90.99
2017-11-23T01:50:48.341Z,91.08
2017-11-23T01:51:50.220Z,90.52
2017-11-23T01:52:52.096Z,90.37
2017-11-23T01:53:53.916Z,89.85
2017-11-23T01:54:55.721Z,89.47
2017-11-23T01:55:57.594Z,90.14
2017-11-23T01:56:59.471Z,91.37
2017-11-23T01:58:01.350Z,91.70
2017-11-23T01:59:15.545Z,92.27
2017-11-23T02:00:17.424Z,92.94
2017-11-23T02:01:19.301Z,91.99
2017-11-23T02:02:21.178Z,92.18
2017-11-23T02:03:22.993Z,91.03
2017-11-23T02:04:24.805Z,90.84
2017-11-23T02:05:26.680Z,90.75
2017-11-23T02:06:28.558Z,90.56
2017-11-23T02:07:30.431Z,90.08
2017-11-23T02:08:44.577Z,90.08
2017-11-23T02:09:46.456Z,89.80
2017-11-23T02:10:48.335Z,89.99
2017-11-23T02:11:50.211Z,89.99
2017-11-23T02:12:52.025Z,90.66
2017-11-23T02:13:53.837Z,90.08
2017-11-23T02:14:55.711Z,89.89
2017-11-23T02:15:57.591Z,91.13
2017-11-23T02:16:59.467Z,90.84
2017-11-23T02:18:13.613Z,90.37
2017-11-23T02:19:15.492Z,90.37
2017-11-23T02:20:17.370Z,89.89
2017-11-23T02:21:19.247Z,89.04
2017-11-23T02:22:21.066Z,88.94
2017-11-23T02:23:22.877Z,88.85
2017-11-23T02:24:24.755Z,88.80
2017-11-23T02:25:26.632Z,89.09
2017-11-23T02:26:28.509Z,88.75
2017-11-23T02:27:42.706Z,88.52
2017-11-23T02:28:44.583Z,88.80
2017-11-23T02:29:46.464Z,89.00
2017-11-23T02:30:48.339Z,89.00
2017-11-23T02:31:50.161Z,89.00
2017-11-23T02:32:51.971Z,88.80
2017-11-23T02:33:53.852Z,89.09
2017-11-23T02:34:55.727Z,89.00
2017-11-23T02:35:57.605Z,88.61
2017-11-23T02:37:11.733Z,88.90
2017-11-23T02:38:13.611Z,88.61
2017-11-23T02:39:15.490Z,89.28
2017-11-23T02:40:17.370Z,89.18
2017-11-23T02:41:19.190Z,88.90
2017-11-23T02:42:20.998Z,89.18
2017-11-23T02:43:22.875Z,89.66
2017-11-23T02:44:24.751Z,89.75
2017-11-23T02:45:26.629Z,89.28
2017-11-23T02:46:40.776Z,89.00
2017-11-23T02:47:42.653Z,89.18
2017-11-23T02:48:44.534Z,89.18
2017-11-23T02:49:46.411Z,88.71
2017-11-23T02:50:48.226Z,88.80
2017-11-23T02:51:50.038Z,89.09
2017-11-23T02:52:51.915Z,89.28
2017-11-23T02:53:53.790Z,89.00
2017-11-23T02:54:55.667Z,88.80
2017-11-23T02:56:09.815Z,89.09
2017-11-23T02:57:11.690Z,88.80
2017-11-23T02:58:13.574Z,88.90
2017-11-23T02:59:15.449Z,89.00
2017-11-23T03:00:17.266Z,88.90
2017-11-23T03:01:19.075Z,88.52
2017-11-23T03:02:20.952Z,88.52
2017-11-23T03:03:22.829Z,88.71
2017-11-23T03:04:24.708Z,88.71
2017-11-23T03:05:38.857Z,88.42
2017-11-23T03:06:40.730Z,88.23
2017-11-23T03:07:42.612Z,88.13
2017-11-23T03:08:44.489Z,87.95
2017-11-23T03:09:46.306Z,88.42
2017-11-23T03:10:48.120Z,88.13
2017-11-23T03:11:50.000Z,88.33
2017-11-23T03:12:51.876Z,87.85
2017-11-23T03:13:53.754Z,87.76
2017-11-23T03:15:07.901Z,87.57
2017-11-23T03:16:09.783Z,87.95
2017-11-23T03:17:11.660Z,88.23
2017-11-23T03:18:13.538Z,88.42
2017-11-23T03:19:15.359Z,88.33
2017-11-23T03:20:17.174Z,88.23
2017-11-23T03:21:19.050Z,88.23
2017-11-23T03:22:20.929Z,87.57
2017-11-23T03:23:22.813Z,87.47
2017-11-23T03:24:37.007Z,87.57
2017-11-23T03:25:38.881Z,87.47
2017-11-23T03:26:40.764Z,87.47
2017-11-23T03:27:42.639Z,87.57
2017-11-23T03:28:44.455Z,87.57
2017-11-23T03:29:46.268Z,87.47
2017-11-23T03:30:48.150Z,87.38
2017-11-23T03:31:50.023Z,87.38
2017-11-23T03:32:51.902Z,87.38
2017-11-23T03:34:06.048Z,87.85
2017-11-23T03:35:07.924Z,87.28
2017-11-23T03:36:09.822Z,87.28
2017-11-23T03:37:11.682Z,87.57
2017-11-23T03:38:13.500Z,86.80
2017-11-23T03:39:15.309Z,86.80
2017-11-23T03:40:17.190Z,86.80
2017-11-23T03:41:19.065Z,86.52
2017-11-23T03:42:20.942Z,87.47
2017-11-23T03:43:35.088Z,87.28
2017-11-23T03:44:36.968Z,87.19
2017-11-23T03:45:38.853Z,86.90
2017-11-23T03:46:40.724Z,87.09
2017-11-23T03:47:42.548Z,87.09
2017-11-23T03:48:44.360Z,86.24
2017-11-23T03:49:46.241Z,86.71
2017-11-23T03:50:48.116Z,86.14
2017-11-23T03:51:49.998Z,86.33
2017-11-23T03:53:04.145Z,86.05
2017-11-23T03:54:06.023Z,86.05
2017-11-23T03:55:07.905Z,86.33
2017-11-23T03:56:09.781Z,85.76
2017-11-23T03:57:11.598Z,86.33
2017-11-23T03:58:13.413Z,86.43
2017-11-23T03:59:15.289Z,86.52
2017-11-23T04:00:17.164Z,86.33
2017-11-23T04:01:19.043Z,86.61
2017-11-23T04:02:33.189Z,86.43
2017-11-23T04:03:35.066Z,86.43
2017-11-23T04:04:36.948Z,86.61
2017-11-23T04:05:38.827Z,86.71
2017-11-23T04:06:40.641Z,86.80
2017-11-23T04:07:42.455Z,86.80
2017-11-23T04:08:44.344Z,86.80
2017-11-23T04:09:46.220Z,86.80
2017-11-23T04:10:48.102Z,86.80
2017-11-23T04:12:02.258Z,86.86
2017-11-23T04:13:04.123Z,87.71
2017-11-23T04:14:06.007Z,87.62
2017-11-23T04:15:07.881Z,87.71
2017-11-23T04:16:09.695Z,87.62
2017-11-23T04:17:11.507Z,87.34
2017-11-23T04:18:13.384Z,87.24
2017-11-23T04:19:15.265Z,87.43
2017-11-23T04:20:17.141Z,87.34
2017-11-23T04:21:31.288Z,88.28
2017-11-23T04:22:33.167Z,88.38
2017-11-23T04:23:35.048Z,88.47
2017-11-23T04:24:36.927Z,87.52
2017-11-23T04:25:38.742Z,87.62
2017-11-23T04:26:40.556Z,87.71
2017-11-23T04:27:42.435Z,88.09
2017-11-23T04:28:44.314Z,88.19
2017-11-23T04:29:46.206Z,88.19
2017-11-23T04:31:00.332Z,88.76
2017-11-23T04:32:02.221Z,89.00
2017-11-23T04:33:04.092Z,89.09
2017-11-23T04:34:05.967Z,88.90
2017-11-23T04:35:07.781Z,88.85
2017-11-23T04:36:09.592Z,88.47
2017-11-23T04:37:11.470Z,88.38
2017-11-23T04:38:13.345Z,88.19
2017-11-23T04:39:15.225Z,88.19
2017-11-23T04:40:29.371Z,88.67
2017-11-23T04:41:31.249Z,88.00
2017-11-23T04:42:33.130Z,88.38
2017-11-23T04:43:35.005Z,88.00
2017-11-23T04:44:36.822Z,88.00
2017-11-23T04:45:38.637Z,88.57
2017-11-23T04:46:40.514Z,87.43
2017-11-23T04:47:42.388Z,87.52
2017-11-23T04:48:44.267Z,87.43
2017-11-23T04:49:58.414Z,87.05
2017-11-23T04:51:00.292Z,86.57
2017-11-23T04:52:02.174Z,86.76
2017-11-23T04:53:04.050Z,86.86
2017-11-23T04:54:05.864Z,86.57
2017-11-23T04:55:07.677Z,87.14
2017-11-23T04:56:09.555Z,87.62
2017-11-23T04:57:11.435Z,87.43
2017-11-23T04:58:13.313Z,87.52
2017-11-23T04:59:27.463Z,87.43
2017-11-23T05:00:29.346Z,87.24
2017-11-23T05:01:31.225Z,87.34
2017-11-23T05:02:33.104Z,87.71
2017-11-23T05:03:34.919Z,87.62
2017-11-23T05:04:36.732Z,87.71
2017-11-23T05:05:38.610Z,87.52
2017-11-23T05:06:40.487Z,87.52
2017-11-23T05:07:42.365Z,87.90
2017-11-23T05:08:56.515Z,88.15
2017-11-23T05:09:58.394Z,88.19
2017-11-23T05:11:00.281Z,88.47
2017-11-23T05:12:02.156Z,88.38
2017-11-23T05:13:03.972Z,88.38
2017-11-23T05:14:05.788Z,88.15
2017-11-23T05:15:07.661Z,88.71
2017-11-23T05:16:09.536Z,88.81
2017-11-23T05:17:11.414Z,88.34
2017-11-23T05:18:25.560Z,88.24
2017-11-23T05:19:27.500Z,88.62
2017-11-23T05:20:29.359Z,88.43
2017-11-23T05:21:31.238Z,88.15
2017-11-23T05:22:33.052Z,88.15
2017-11-23T05:23:34.862Z,88.15
2017-11-23T05:24:36.740Z,87.90
2017-11-23T05:25:38.616Z,87.71
2017-11-23T05:26:40.509Z,87.52
2017-11-23T05:27:54.647Z,87.71
2017-11-23T05:28:56.521Z,87.43
2017-11-23T05:29:58.412Z,87.14
2017-11-23T05:31:00.277Z,86.47
2017-11-23T05:32:02.093Z,86.47
2017-11-23T05:33:03.905Z,87.14
2017-11-23T05:34:05.784Z,86.38
2017-11-23T05:35:07.657Z,86.57
2017-11-23T05:36:09.541Z,86.67
2017-11-23T05:37:23.689Z,86.38
2017-11-23T05:38:25.566Z,86.29
2017-11-23T05:39:27.452Z,86.95
2017-11-23T05:40:29.326Z,86.76
2017-11-23T05:41:31.141Z,86.76
2017-11-23T05:42:32.956Z,86.76
2017-11-23T05:43:34.835Z,86.95
2017-11-23T05:44:36.710Z,86.76
2017-11-23T05:45:38.587Z,86.86
2017-11-23T05:46:52.782Z,86.67
2017-11-23T05:47:54.662Z,86.67
2017-11-23T05:48:56.543Z,86.95
2017-11-23T05:49:58.421Z,86.67
2017-11-23T05:51:00.237Z,86.47
2017-11-23T05:52:02.051Z,86.47
2017-11-23T05:53:03.931Z,87.05
2017-11-23T05:54:05.805Z,86.86
2017-11-23T05:55:07.689Z,86.67
2017-11-23T05:56:21.837Z,86.76
2017-11-23T05:57:23.715Z,85.91
2017-11-23T05:58:25.598Z,85.91
2017-11-23T05:59:27.478Z,85.53
2017-11-23T06:00:29.290Z,85.62
2017-11-23T06:01:31.103Z,85.62
2017-11-23T06:02:32.987Z,85.43
2017-11-23T06:03:34.857Z,85.43
2017-11-23T06:04:36.735Z,85.34
2017-11-23T06:05:50.934Z,85.53
2017-11-23T06:06:52.811Z,85.05
2017-11-23T06:07:54.692Z,84.95
2017-11-23T06:08:56.571Z,85.05
2017-11-23T06:09:58.375Z,84.67
2017-11-23T06:11:00.218Z,84.86
2017-11-23T06:12:02.100Z,84.48
2017-11-23T06:13:03.984Z,84.95
2017-11-23T06:14:05.864Z,84.91
2017-11-23T06:15:20.010Z,84.39
2017-11-23T06:16:21.888Z,84.39
2017-11-23T06:17:23.773Z,83.82
2017-11-23T06:18:25.647Z,83.82
2017-11-23T06:19:27.467Z,84.10
2017-11-23T06:20:29.283Z,84.29
2017-11-23T06:21:31.163Z,84.01
2017-11-23T06:22:33.040Z,84.20
2017-11-23T06:23:34.924Z,83.91
2017-11-23T06:24:49.070Z,84.01
2017-11-23T06:25:50.952Z,84.39
2017-11-23T06:26:52.834Z,84.39
2017-11-23T06:27:54.710Z,84.10
2017-11-23T06:28:56.531Z,84.01
2017-11-23T06:29:58.343Z,84.29
2017-11-23T06:31:00.225Z,84.10
2017-11-23T06:32:02.104Z,84.01
2017-11-23T06:33:03.988Z,84.20
2017-11-23T06:34:18.139Z,84.10
2017-11-23T06:35:20.017Z,84.01
2017-11-23T06:36:21.902Z,84.20
2017-11-23T06:37:23.782Z,84.20
2017-11-23T06:38:25.600Z,84.39
2017-11-23T06:39:27.416Z,83.72
2017-11-23T06:40:29.296Z,84.01
2017-11-23T06:41:31.175Z,84.29
2017-11-23T06:42:33.055Z,84.20
2017-11-23T06:43:47.213Z,84.29
2017-11-23T06:44:49.092Z,84.20
2017-11-23T06:45:50.975Z,84.29
2017-11-23T06:46:52.852Z,84.01
2017-11-23T06:47:54.673Z,84.29
2017-11-23T06:48:56.489Z,84.20
2017-11-23T06:49:58.371Z,84.20
2017-11-23T06:51:00.248Z,83.62
2017-11-23T06:52:02.129Z,83.34
2017-11-23T06:53:16.278Z,83.82
2017-11-23T06:54:18.157Z,83.62
2017-11-23T06:55:20.045Z,83.82
2017-11-23T06:56:21.924Z,83.62
2017-11-23T06:57:23.749Z,83.62
2017-11-23T06:58:25.564Z,83.72
2017-11-23T06:59:27.442Z,83.62
2017-11-23T07:00:29.326Z,84.10
2017-11-23T07:01:31.206Z,83.34
2017-11-23T07:02:45.356Z,83.53
2017-11-23T07:03:47.235Z,83.19
2017-11-23T07:04:49.120Z,83.00
2017-11-23T07:05:50.999Z,82.49
2017-11-23T07:06:52.817Z,82.20
2017-11-23T07:07:54.635Z,82.68
2017-11-23T07:08:56.516Z,82.29
2017-11-23T07:09:58.399Z,82.29
2017-11-23T07:11:00.278Z,82.34
2017-11-23T07:12:14.428Z,82.05
2017-11-23T07:13:16.308Z,82.15
2017-11-23T07:14:18.193Z,82.24
2017-11-23T07:15:20.073Z,82.01
2017-11-23T07:16:21.894Z,82.68
2017-11-23T07:17:23.709Z,83.06
2017-11-23T07:18:25.590Z,83.34
2017-11-23T07:19:27.471Z,83.82
2017-11-23T07:20:29.351Z,83.34
2017-11-23T07:21:43.506Z,83.82
2017-11-23T07:22:45.386Z,83.62
2017-11-23T07:23:47.271Z,83.82
2017-11-23T07:24:49.152Z,83.82
2017-11-23T07:25:50.971Z,83.48
2017-11-23T07:26:52.785Z,82.91
2017-11-23T07:27:54.665Z,83.00
2017-11-23T07:28:56.546Z,82.91
2017-11-23T07:29:58.427Z,82.81
2017-11-23T07:31:12.578Z,82.81
2017-11-23T07:32:14.458Z,82.71
2017-11-23T07:33:16.343Z,82.53
2017-11-23T07:34:18.224Z,82.81
2017-11-23T07:35:20.042Z,82.43
2017-11-23T07:36:21.861Z,81.96
2017-11-23T07:37:23.741Z,82.43
2017-11-23T07:38:25.629Z,82.15
2017-11-23T07:39:27.518Z,82.05
2017-11-23T07:40:41.712Z,82.53
2017-11-23T07:41:43.597Z,82.34
2017-11-23T07:42:45.484Z,81.96
2017-11-23T07:43:47.366Z,81.71
2017-11-23T07:44:49.188Z,81.81
2017-11-23T07:45:51.008Z,81.52
2017-11-23T07:46:52.890Z,81.81
2017-11-23T07:47:54.772Z,81.58
2017-11-23T07:48:56.656Z,81.81
2017-11-23T07:50:10.863Z,81.81
2017-11-23T07:51:12.744Z,81.90
2017-11-23T07:52:14.626Z,81.90
2017-11-23T07:53:16.510Z,82.28
2017-11-23T07:54:18.334Z,82.19
2017-11-23T07:55:20.152Z,81.52
2017-11-23T07:56:22.036Z,81.24
2017-11-23T07:57:23.919Z,81.62
2017-11-23T07:58:25.809Z,81.48
2017-11-23T07:59:40.007Z,81.86
2017-11-23T08:00:41.889Z,81.96
2017-11-23T08:01:43.775Z,82.15
2017-11-23T08:02:45.661Z,82.43
2017-11-23T08:03:47.483Z,82.81
2017-11-23T08:04:49.301Z,82.34
2017-11-23T08:05:51.182Z,82.15
2017-11-23T08:06:53.066Z,81.86
2017-11-23T08:07:54.950Z,81.81
2017-11-23T08:09:09.101Z,82.00
2017-11-23T08:10:10.983Z,81.43
2017-11-23T08:11:12.869Z,81.14
2017-11-23T08:12:14.750Z,81.33
2017-11-23T08:13:16.572Z,81.52
2017-11-23T08:14:18.392Z,81.24
2017-11-23T08:15:20.272Z,81.05
2017-11-23T08:16:22.158Z,81.14
2017-11-23T08:17:24.048Z,81.52
2017-11-23T08:18:38.195Z,82.00
2017-11-23T08:19:40.078Z,81.52
2017-11-23T08:20:41.962Z,81.43
2017-11-23T08:21:43.845Z,81.33
2017-11-23T08:22:45.668Z,80.66
2017-11-23T08:23:47.491Z,80.76
2017-11-23T08:24:49.370Z,81.14
2017-11-23T08:25:51.253Z,81.14
2017-11-23T08:26:53.138Z,81.52
2017-11-23T08:28:07.291Z,81.24
2017-11-23T08:29:09.173Z,81.05
2017-11-23T08:30:11.056Z,80.38
2017-11-23T08:31:12.936Z,80.86
2017-11-23T08:32:14.757Z,80.38
2017-11-23T08:33:16.574Z,80.10
2017-11-23T08:34:18.458Z,80.00
2017-11-23T08:35:20.343Z,79.72
2017-11-23T08:36:22.226Z,79.66
2017-11-23T08:37:36.380Z,80.13
2017-11-23T08:38:38.263Z,79.47
2017-11-23T08:39:40.151Z,79.28
2017-11-23T08:40:42.034Z,78.99
2017-11-23T08:41:43.861Z,78.99
2017-11-23T08:42:45.682Z,78.80
2017-11-23T08:43:47.559Z,78.61
2017-11-23T08:44:49.438Z,77.66
2017-11-23T08:45:51.323Z,77.47
2017-11-23T08:47:05.479Z,77.95
2017-11-23T08:48:07.359Z,77.42
2017-11-23T08:49:09.247Z,77.13
2017-11-23T08:50:11.134Z,76.65
2017-11-23T08:51:12.954Z,76.65
2017-11-23T08:52:14.774Z,76.27
2017-11-23T08:53:16.657Z,76.37
2017-11-23T08:54:18.539Z,77.03
2017-11-23T08:55:20.423Z,76.94
2017-11-23T08:56:34.576Z,76.46
2017-11-23T08:57:36.460Z,76.27
2017-11-23T08:58:38.345Z,76.08
2017-11-23T08:59:40.229Z,75.79
2017-11-23T09:00:42.057Z,75.32
2017-11-23T09:01:43.875Z,75.07
2017-11-23T09:02:45.776Z,75.45
2017-11-23T09:03:47.645Z,74.69
2017-11-23T09:04:49.527Z,74.21
2017-11-23T09:06:03.681Z,74.02
2017-11-23T09:07:05.563Z,74.02
2017-11-23T09:08:07.449Z,73.55
2017-11-23T09:09:09.331Z,73.58
2017-11-23T09:10:11.166Z,73.30
2017-11-23T09:11:12.980Z,72.92
2017-11-23T09:12:14.862Z,72.16
2017-11-23T09:13:16.746Z,72.34
2017-11-23T09:14:18.634Z,71.77
2017-11-23T09:15:32.789Z,71.39
2017-11-23T09:16:34.671Z,70.92
2017-11-23T09:17:36.558Z,71.30
2017-11-23T09:18:38.439Z,71.52
2017-11-23T09:19:40.270Z,71.23
2017-11-23T09:20:42.084Z,71.48
2017-11-23T09:21:43.969Z,70.92
2017-11-23T09:22:45.852Z,71.33
2017-11-23T09:23:47.739Z,71.23
2017-11-23T09:25:01.894Z,70.38
2017-11-23T09:26:03.778Z,70.67
2017-11-23T09:27:05.670Z,70.76
2017-11-23T09:28:07.545Z,70.67
2017-11-23T09:29:09.367Z,70.57
2017-11-23T09:30:11.191Z,70.76
2017-11-23T09:31:13.075Z,70.95
2017-11-23T09:32:14.920Z,70.86
2017-11-23T09:33:16.744Z,70.86
2017-11-23T09:34:30.950Z,70.67
2017-11-23T09:35:32.835Z,70.86
2017-11-23T09:36:34.721Z,70.95
2017-11-23T09:37:36.603Z,71.33
2017-11-23T09:38:38.432Z,71.33
2017-11-23T09:39:40.254Z,71.52
2017-11-23T09:40:42.138Z,72.19
2017-11-23T09:41:44.022Z,71.14
2017-11-23T09:42:45.909Z,71.62
2017-11-23T09:44:00.063Z,71.52
2017-11-23T09:45:01.948Z,70.47
2017-11-23T09:46:03.833Z,70.09
2017-11-23T09:47:05.715Z,69.14
2017-11-23T09:48:07.542Z,69.81
2017-11-23T09:49:09.371Z,69.43
2017-11-23T09:50:11.248Z,69.23
2017-11-23T09:51:13.134Z,69.81
2017-11-23T09:52:15.019Z,69.33
2017-11-23T09:53:29.173Z,69.52
2017-11-23T09:54:31.058Z,70.86
2017-11-23T09:55:32.963Z,70.09
2017-11-23T09:56:34.830Z,69.52
2017-11-23T09:57:36.674Z,68.57
2017-11-23T09:58:38.477Z,69.52
2017-11-23T09:59:40.361Z,69.23
2017-11-23T10:00:42.250Z,69.04
2017-11-23T10:01:44.128Z,68.66
2017-11-23T10:02:58.283Z,69.14
2017-11-23T10:04:00.169Z,69.23
2017-11-23T10:05:02.055Z,69.23
2017-11-23T10:06:03.941Z,69.14
2017-11-23T10:07:05.768Z,69.52
2017-11-23T10:08:07.597Z,69.14
2017-11-23T10:09:09.472Z,69.56
2017-11-23T10:10:11.355Z,69.17
2017-11-23T10:11:13.239Z,68.76
2017-11-23T10:12:27.401Z,68.85
2017-11-23T10:13:29.285Z,69.23
2017-11-23T10:14:31.170Z,69.27
2017-11-23T10:15:33.380Z,69.65
2017-11-23T10:16:35.180Z,69.33
2017-11-23T10:17:37.005Z,69.23
2017-11-23T10:18:38.888Z,69.81
2017-11-23T10:19:40.774Z,69.81
2017-11-23T10:20:42.664Z,70.19
2017-11-23T10:21:56.816Z,70.57
2017-11-23T10:22:58.698Z,70.57
2017-11-23T10:24:00.584Z,71.14
2017-11-23T10:25:02.468Z,71.43
2017-11-23T10:26:04.293Z,71.23
2017-11-23T10:27:06.115Z,71.52
2017-11-23T10:28:07.999Z,70.95
2017-11-23T10:29:09.882Z,71.43
2017-11-23T10:30:11.772Z,71.23
2017-11-23T10:31:25.923Z,71.33
2017-11-23T10:32:27.805Z,71.04
2017-11-23T10:33:29.693Z,71.62
2017-11-23T10:34:31.577Z,71.04
2017-11-23T10:35:33.402Z,71.43
2017-11-23T10:36:35.225Z,71.04
2017-11-23T10:37:37.113Z,71.77
2017-11-23T10:38:38.994Z,71.72
2017-11-23T10:39:40.879Z,71.96
2017-11-23T10:40:55.083Z,71.87
2017-11-23T10:41:56.968Z,72.19
2017-11-23T10:42:58.856Z,72.09
2017-11-23T10:44:00.744Z,72.16
2017-11-23T10:45:02.571Z,72.53
2017-11-23T10:46:04.393Z,72.44
2017-11-23T10:47:06.279Z,71.77
2017-11-23T10:48:08.159Z,71.87
2017-11-23T10:49:10.051Z,72.09
2017-11-23T10:50:24.207Z,71.91
2017-11-23T10:51:26.093Z,72.25
2017-11-23T10:52:27.980Z,73.01
2017-11-23T10:53:29.865Z,72.92
2017-11-23T10:54:31.696Z,72.96
2017-11-23T10:55:33.512Z,73.05
2017-11-23T10:56:35.402Z,72.76
2017-11-23T10:57:37.277Z,72.67
2017-11-23T10:58:39.165Z,72.38
2017-11-23T10:59:53.324Z,72.28
2017-11-23T11:00:55.214Z,72.48
2017-11-23T11:01:57.096Z,72.38
2017-11-23T11:02:58.982Z,72.57
2017-11-23T11:04:00.807Z,72.48
2017-11-23T11:05:02.628Z,72.48
2017-11-23T11:06:04.514Z,72.09
2017-11-23T11:07:06.396Z,71.72
2017-11-23T11:08:08.283Z,71.91
2017-11-23T11:09:22.438Z,72.09
2017-11-23T11:10:24.323Z,71.52
2017-11-23T11:11:26.210Z,71.04
2017-11-23T11:12:28.094Z,71.33
2017-11-23T11:13:29.921Z,71.14
2017-11-23T11:14:31.742Z,71.23
2017-11-23T11:15:33.627Z,71.14
2017-11-23T11:16:35.509Z,71.33
2017-11-23T11:17:37.395Z,71.14
2017-11-23T11:18:51.550Z,71.33
2017-11-23T11:19:53.433Z,71.04
2017-11-23T11:20:55.322Z,71.14
2017-11-23T11:21:57.208Z,71.04
2017-11-23T11:22:59.032Z,70.38
2017-11-23T11:24:00.854Z,70.47
2017-11-23T11:25:02.785Z,69.81
2017-11-23T11:26:04.678Z,69.46
2017-11-23T11:27:06.553Z,69.23
2017-11-23T11:28:20.710Z,68.76
2017-11-23T11:29:22.594Z,68.79
2017-11-23T11:30:24.481Z,68.85
2017-11-23T11:31:26.365Z,68.85
2017-11-23T11:32:28.189Z,69.81
2017-11-23T11:33:30.053Z,69.23
2017-11-23T11:34:31.875Z,69.43
2017-11-23T11:35:33.781Z,69.23
2017-11-23T11:36:35.715Z,69.62
2017-11-23T11:37:49.933Z,68.88
2017-11-23T11:38:51.817Z,69.08
2017-11-23T11:39:53.705Z,68.60
2017-11-23T11:40:55.592Z,68.98
2017-11-23T11:41:57.417Z,68.88
2017-11-23T11:42:59.242Z,68.79
2017-11-23T11:44:01.126Z,68.60
2017-11-23T11:45:03.010Z,68.32
2017-11-23T11:46:04.855Z,68.41
2017-11-23T11:47:19.011Z,67.46
2017-11-23T11:48:20.898Z,67.65
2017-11-23T11:49:22.784Z,67.83
2017-11-23T11:50:24.668Z,67.65
2017-11-23T11:51:26.493Z,67.04
2017-11-23T11:52:28.315Z,66.69
2017-11-23T11:53:30.201Z,67.17
2017-11-23T11:54:32.091Z,67.07
2017-11-23T11:55:33.979Z,66.88
2017-11-23T11:56:48.134Z,67.55
2017-11-23T11:57:50.018Z,67.07
2017-11-23T11:58:51.906Z,66.60
2017-11-23T11:59:53.789Z,66.78
2017-11-23T12:00:55.616Z,66.98
2017-11-23T12:01:57.439Z,66.98
2017-11-23T12:02:59.323Z,67.71
2017-11-23T12:04:01.208Z,67.61
2017-11-23T12:05:03.091Z,67.71
2017-11-23T12:06:17.247Z,67.52
2017-11-23T12:07:19.129Z,68.18
2017-11-23T12:08:21.017Z,68.09
2017-11-23T12:09:22.902Z,68.18
2017-11-23T12:10:24.727Z,68.38
2017-11-23T12:11:26.553Z,68.85
2017-11-23T12:12:28.442Z,68.85
2017-11-23T12:13:30.321Z,69.23
2017-11-23T12:14:32.205Z,69.23
2017-11-23T12:15:46.366Z,69.23
2017-11-23T12:16:48.249Z,70.00
2017-11-23T12:17:50.138Z,70.09
2017-11-23T12:18:52.022Z,69.65
2017-11-23T12:19:53.845Z,69.65
2017-11-23T12:20:55.667Z,69.93
2017-11-23T12:21:57.554Z,69.08
2017-11-23T12:22:59.439Z,68.70
2017-11-23T12:24:01.327Z,68.66
2017-11-23T12:25:15.477Z,68.85
2017-11-23T12:26:17.361Z,68.95
2017-11-23T12:27:19.249Z,68.95
2017-11-23T12:28:21.152Z,68.98
2017-11-23T12:29:22.958Z,68.60
2017-11-23T12:30:24.779Z,68.79
2017-11-23T12:31:26.664Z,69.08
2017-11-23T12:32:28.558Z,68.79
2017-11-23T12:33:30.431Z,68.51
2017-11-23T12:34:44.584Z,68.22
2017-11-23T12:35:46.475Z,68.32
2017-11-23T12:36:48.359Z,68.41
2017-11-23T12:37:50.238Z,68.88
2017-11-23T12:38:52.067Z,68.76
2017-11-23T12:39:53.888Z,68.76
2017-11-23T12:40:55.775Z,68.18
2017-11-23T12:41:57.657Z,68.76
2017-11-23T12:42:59.544Z,69.23
2017-11-23T12:44:13.701Z,69.43
2017-11-23T12:45:15.589Z,69.52
2017-11-23T12:46:17.474Z,69.14
2017-11-23T12:47:19.358Z,68.76
2017-11-23T12:48:21.186Z,68.76
2017-11-23T12:49:23.009Z,69.04
2017-11-23T12:50:24.896Z,68.76
2017-11-23T12:51:26.777Z,68.95
2017-11-23T12:52:28.663Z,69.14
2017-11-23T12:53:42.867Z,68.38
2017-11-23T12:54:44.755Z,68.18
2017-11-23T12:55:46.644Z,68.57
2017-11-23T12:56:48.530Z,68.85
2017-11-23T12:57:50.355Z,68.85
2017-11-23T12:58:52.176Z,69.14
2017-11-23T12:59:54.061Z,68.95
2017-11-23T13:00:55.945Z,68.85
2017-11-23T13:01:57.833Z,68.95
2017-11-23T13:03:11.992Z,68.85
2017-11-23T13:04:13.878Z,69.23
2017-11-23T13:05:15.765Z,69.65
2017-11-23T13:06:17.651Z,69.46
2017-11-23T13:07:19.479Z,69.46
2017-11-23T13:08:21.304Z,69.17
2017-11-23T13:09:23.185Z,68.98
2017-11-23T13:10:25.067Z,68.98
2017-11-23T13:11:26.958Z,69.08
2017-11-23T13:12:41.111Z,68.95
2017-11-23T13:13:42.999Z,69.43
2017-11-23T13:14:44.894Z,69.43
2017-11-23T13:15:46.778Z,70.19
2017-11-23T13:16:48.605Z,70.19
2017-11-23T13:17:50.427Z,70.19
2017-11-23T13:18:52.315Z,70.47
2017-11-23T13:19:54.197Z,71.14
2017-11-23T13:20:56.083Z,70.67
2017-11-23T13:22:10.293Z,70.57
2017-11-23T13:23:12.181Z,70.09
2017-11-23T13:24:14.071Z,70.95
2017-11-23T13:25:15.962Z,71.14
2017-11-23T13:26:17.783Z,71.62
2017-11-23T13:27:19.604Z,71.33
2017-11-23T13:28:21.519Z,71.04
2017-11-23T13:29:23.378Z,71.52
2017-11-23T13:30:25.266Z,71.91
2017-11-23T13:31:39.423Z,71.52
2017-11-23T13:32:41.312Z,71.39
2017-11-23T13:33:43.198Z,71.39